sensor_id;sensor_type;location;lat;lon;timestamp;temperature;humidity
55313;DHT22;46892;45.668;11.756;2023-06-14T00:01:24;19.20;79.70
55313;DHT22;46892;45.668;11.756;2023-06-14T00:03:50;19.20;79.20
55313;DHT22;46892;45.668;11.756;2023-06-14T00:06:16;19.10;79.30
55313;DHT22;46892;45.668;11.756;2023-06-14T00:08:43;19.00;79.70
55313;DHT22;46892;45.668;11.756;2023-06-14T00:11:09;19.00;79.70
55313;DHT22;46892;45.668;11.756;2023-06-14T00:13:35;19.00;79.40
55313;DHT22;46892;45.668;11.756;2023-06-14T00:16:01;19.00;79.30
55313;DHT22;46892;45.668;11.756;2023-06-14T00:18:26;19.00;79.20
55313;DHT22;46892;45.668;11.756;2023-06-14T00:20:56;19.00;79.00
55313;DHT22;46892;45.668;11.756;2023-06-14T00:23:22;18.90;79.20
55313;DHT22;46892;45.668;11.756;2023-06-14T00:25:47;18.90;79.00
55313;DHT22;46892;45.668;11.756;2023-06-14T00:28:13;18.80;79.40
55313;DHT22;46892;45.668;11.756;2023-06-14T00:30:39;18.80;79.10
55313;DHT22;46892;45.668;11.756;2023-06-14T00:33:05;18.90;79.40
55313;DHT22;46892;45.668;11.756;2023-06-14T00:35:31;19.00;78.80
55313;DHT22;46892;45.668;11.756;2023-06-14T00:37:57;19.10;78.60
55313;DHT22;46892;45.668;11.756;2023-06-14T00:40:23;19.00;78.80
55313;DHT22;46892;45.668;11.756;2023-06-14T00:42:49;19.00;78.30
55313;DHT22;46892;45.668;11.756;2023-06-14T00:45:15;19.00;78.00
55313;DHT22;46892;45.668;11.756;2023-06-14T00:47:42;19.10;77.70
55313;DHT22;46892;45.668;11.756;2023-06-14T00:50:09;19.00;79.00
55313;DHT22;46892;45.668;11.756;2023-06-14T00:52:36;19.00;79.80
55313;DHT22;46892;45.668;11.756;2023-06-14T00:55:02;18.90;80.20
55313;DHT22;46892;45.668;11.756;2023-06-14T00:57:28;18.90;80.40
55313;DHT22;46892;45.668;11.756;2023-06-14T00:59:55;18.90;80.50
55313;DHT22;46892;45.668;11.756;2023-06-14T01:02:21;18.90;80.60
55313;DHT22;46892;45.668;11.756;2023-06-14T01:04:48;18.90;80.60
55313;DHT22;46892;45.668;11.756;2023-06-14T01:15:33;18.80;79.70
55313;DHT22;46892;45.668;11.756;2023-06-14T01:17:59;18.80;79.80
55313;DHT22;46892;45.668;11.756;2023-06-14T01:20:29;18.80;79.80
55313;DHT22;46892;45.668;11.756;2023-06-14T01:22:56;18.80;79.30
55313;DHT22;46892;45.668;11.756;2023-06-14T01:25:23;18.80;79.10
55313;DHT22;46892;45.668;11.756;2023-06-14T01:28:07;18.80;79.20
55313;DHT22;46892;45.668;11.756;2023-06-14T01:30:38;18.80;79.00
55313;DHT22;46892;45.668;11.756;2023-06-14T01:33:04;18.80;78.30
55313;DHT22;46892;45.668;11.756;2023-06-14T01:35:31;18.80;78.70
55313;DHT22;46892;45.668;11.756;2023-06-14T01:37:58;18.80;78.70
55313;DHT22;46892;45.668;11.756;2023-06-14T01:40:25;18.80;78.10
55313;DHT22;46892;45.668;11.756;2023-06-14T01:42:51;18.80;78.30
55313;DHT22;46892;45.668;11.756;2023-06-14T01:45:18;18.80;80.20
55313;DHT22;46892;45.668;11.756;2023-06-14T01:47:45;18.80;78.90
55313;DHT22;46892;45.668;11.756;2023-06-14T01:50:11;18.90;77.70
55313;DHT22;46892;45.668;11.756;2023-06-14T01:52:38;18.80;77.40
55313;DHT22;46892;45.668;11.756;2023-06-14T01:55:07;18.80;79.50
55313;DHT22;46892;45.668;11.756;2023-06-14T01:57:33;18.70;79.60
55313;DHT22;46892;45.668;11.756;2023-06-14T01:59:59;18.80;78.60
55313;DHT22;46892;45.668;11.756;2023-06-14T02:02:25;18.70;80.40
55313;DHT22;46892;45.668;11.756;2023-06-14T02:04:50;18.70;80.70
55313;DHT22;46892;45.668;11.756;2023-06-14T02:07:16;18.80;78.00
55313;DHT22;46892;45.668;11.756;2023-06-14T02:09:42;18.80;78.00
55313;DHT22;46892;45.668;11.756;2023-06-14T02:12:08;18.80;77.20
55313;DHT22;46892;45.668;11.756;2023-06-14T02:14:34;18.80;77.60
55313;DHT22;46892;45.668;11.756;2023-06-14T02:16:59;18.80;78.10
55313;DHT22;46892;45.668;11.756;2023-06-14T02:19:26;18.80;77.40
55313;DHT22;46892;45.668;11.756;2023-06-14T02:21:52;18.90;77.10
55313;DHT22;46892;45.668;11.756;2023-06-14T02:24:18;18.90;76.70
55313;DHT22;46892;45.668;11.756;2023-06-14T02:26:44;18.90;76.70
55313;DHT22;46892;45.668;11.756;2023-06-14T02:29:10;18.90;77.00
55313;DHT22;46892;45.668;11.756;2023-06-14T02:31:38;18.80;78.10
55313;DHT22;46892;45.668;11.756;2023-06-14T02:34:04;18.80;79.70
55313;DHT22;46892;45.668;11.756;2023-06-14T02:36:30;18.70;79.40
55313;DHT22;46892;45.668;11.756;2023-06-14T02:38:56;18.70;79.70
55313;DHT22;46892;45.668;11.756;2023-06-14T02:41:25;18.70;80.90
55313;DHT22;46892;45.668;11.756;2023-06-14T02:43:52;18.50;80.30
55313;DHT22;46892;45.668;11.756;2023-06-14T02:46:18;18.50;80.30
55313;DHT22;46892;45.668;11.756;2023-06-14T02:48:44;18.50;80.70
55313;DHT22;46892;45.668;11.756;2023-06-14T02:51:10;18.50;80.70
55313;DHT22;46892;45.668;11.756;2023-06-14T02:53:36;18.50;79.50
55313;DHT22;46892;45.668;11.756;2023-06-14T02:56:02;18.50;79.90
55313;DHT22;46892;45.668;11.756;2023-06-14T02:58:29;18.50;81.20
55313;DHT22;46892;45.668;11.756;2023-06-14T03:00:55;18.30;81.00
55313;DHT22;46892;45.668;11.756;2023-06-14T03:03:21;18.30;81.60
55313;DHT22;46892;45.668;11.756;2023-06-14T03:05:50;18.30;81.40
55313;DHT22;46892;45.668;11.756;2023-06-14T03:08:17;18.30;80.80
55313;DHT22;46892;45.668;11.756;2023-06-14T03:10:48;18.30;81.20
55313;DHT22;46892;45.668;11.756;2023-06-14T03:13:15;18.30;82.20
55313;DHT22;46892;45.668;11.756;2023-06-14T03:15:46;18.30;82.10
55313;DHT22;46892;45.668;11.756;2023-06-14T03:18:13;18.30;81.20
55313;DHT22;46892;45.668;11.756;2023-06-14T03:20:40;18.30;80.80
55313;DHT22;46892;45.668;11.756;2023-06-14T03:23:06;18.30;80.80
55313;DHT22;46892;45.668;11.756;2023-06-14T03:25:32;18.30;81.00
55313;DHT22;46892;45.668;11.756;2023-06-14T03:28:01;18.30;81.40
55313;DHT22;46892;45.668;11.756;2023-06-14T03:30:30;18.20;81.80
55313;DHT22;46892;45.668;11.756;2023-06-14T03:32:56;18.30;81.20
55313;DHT22;46892;45.668;11.756;2023-06-14T03:35:22;18.30;79.90
55313;DHT22;46892;45.668;11.756;2023-06-14T03:37:48;18.40;79.30
55313;DHT22;46892;45.668;11.756;2023-06-14T03:40:17;18.40;78.90
55313;DHT22;46892;45.668;11.756;2023-06-14T03:42:43;18.50;78.70
55313;DHT22;46892;45.668;11.756;2023-06-14T03:45:09;18.50;78.40
55313;DHT22;46892;45.668;11.756;2023-06-14T03:47:35;18.50;78.20
55313;DHT22;46892;45.668;11.756;2023-06-14T03:50:02;18.50;78.30
55313;DHT22;46892;45.668;11.756;2023-06-14T03:52:28;18.50;78.50
55313;DHT22;46892;45.668;11.756;2023-06-14T03:54:53;18.50;78.20
55313;DHT22;46892;45.668;11.756;2023-06-14T03:57:19;18.50;78.40
55313;DHT22;46892;45.668;11.756;2023-06-14T03:59:48;18.50;77.90
55313;DHT22;46892;45.668;11.756;2023-06-14T04:02:13;18.50;78.00
55313;DHT22;46892;45.668;11.756;2023-06-14T04:04:43;18.50;78.00
55313;DHT22;46892;45.668;11.756;2023-06-14T04:07:11;18.50;78.50
55313;DHT22;46892;45.668;11.756;2023-06-14T04:09:38;18.50;78.30
55313;DHT22;46892;45.668;11.756;2023-06-14T04:12:05;18.50;78.10
55313;DHT22;46892;45.668;11.756;2023-06-14T04:14:31;18.40;78.50
55313;DHT22;46892;45.668;11.756;2023-06-14T04:16:58;18.50;79.00
55313;DHT22;46892;45.668;11.756;2023-06-14T04:19:24;18.60;78.50
55313;DHT22;46892;45.668;11.756;2023-06-14T04:21:50;18.70;78.60
55313;DHT22;46892;45.668;11.756;2023-06-14T04:24:16;18.70;77.90
55313;DHT22;46892;45.668;11.756;2023-06-14T04:26:43;18.80;78.30
55313;DHT22;46892;45.668;11.756;2023-06-14T04:29:14;18.80;78.10
55313;DHT22;46892;45.668;11.756;2023-06-14T04:31:42;18.90;77.60
55313;DHT22;46892;45.668;11.756;2023-06-14T04:34:08;18.80;78.00
55313;DHT22;46892;45.668;11.756;2023-06-14T04:36:34;18.90;77.30
55313;DHT22;46892;45.668;11.756;2023-06-14T04:39:03;18.90;77.50
55313;DHT22;46892;45.668;11.756;2023-06-14T04:41:30;19.00;77.40
55313;DHT22;46892;45.668;11.756;2023-06-14T04:43:57;19.00;77.60
55313;DHT22;46892;45.668;11.756;2023-06-14T04:46:27;19.10;79.00
55313;DHT22;46892;45.668;11.756;2023-06-14T04:48:54;19.10;79.60
55313;DHT22;46892;45.668;11.756;2023-06-14T04:51:20;19.10;80.70
55313;DHT22;46892;45.668;11.756;2023-06-14T04:53:48;19.10;81.40
55313;DHT22;46892;45.668;11.756;2023-06-14T04:56:15;19.20;80.20
55313;DHT22;46892;45.668;11.756;2023-06-14T04:58:42;19.40;79.20
55313;DHT22;46892;45.668;11.756;2023-06-14T05:01:09;19.50;78.40
55313;DHT22;46892;45.668;11.756;2023-06-14T05:03:35;19.50;78.80
55313;DHT22;46892;45.668;11.756;2023-06-14T05:06:00;19.50;80.60
55313;DHT22;46892;45.668;11.756;2023-06-14T05:08:26;19.50;80.30
55313;DHT22;46892;45.668;11.756;2023-06-14T05:10:52;19.50;79.70
55313;DHT22;46892;45.668;11.756;2023-06-14T05:13:18;19.50;79.80
55313;DHT22;46892;45.668;11.756;2023-06-14T05:15:44;19.60;80.20
55313;DHT22;46892;45.668;11.756;2023-06-14T05:18:10;19.70;79.60
55313;DHT22;46892;45.668;11.756;2023-06-14T05:20:36;19.70;79.30
55313;DHT22;46892;45.668;11.756;2023-06-14T05:23:02;19.70;79.00
55313;DHT22;46892;45.668;11.756;2023-06-14T05:25:28;19.90;77.00
55313;DHT22;46892;45.668;11.756;2023-06-14T05:27:54;19.90;77.10
55313;DHT22;46892;45.668;11.756;2023-06-14T05:30:20;20.00;77.30
55313;DHT22;46892;45.668;11.756;2023-06-14T05:32:46;20.20;75.60
55313;DHT22;46892;45.668;11.756;2023-06-14T05:35:12;20.40;75.40
55313;DHT22;46892;45.668;11.756;2023-06-14T05:37:37;20.60;75.70
55313;DHT22;46892;45.668;11.756;2023-06-14T05:40:04;20.70;75.70
55313;DHT22;46892;45.668;11.756;2023-06-14T05:42:32;20.80;75.00
55313;DHT22;46892;45.668;11.756;2023-06-14T05:44:57;20.90;75.30
55313;DHT22;46892;45.668;11.756;2023-06-14T05:47:23;21.10;73.40
55313;DHT22;46892;45.668;11.756;2023-06-14T05:49:49;21.20;73.00
55313;DHT22;46892;45.668;11.756;2023-06-14T05:52:15;21.20;72.50
55313;DHT22;46892;45.668;11.756;2023-06-14T05:54:41;21.30;71.60
55313;DHT22;46892;45.668;11.756;2023-06-14T05:57:07;21.30;71.10
55313;DHT22;46892;45.668;11.756;2023-06-14T05:59:32;21.50;70.60
55313;DHT22;46892;45.668;11.756;2023-06-14T06:01:58;21.60;70.80
55313;DHT22;46892;45.668;11.756;2023-06-14T06:04:24;21.70;71.30
55313;DHT22;46892;45.668;11.756;2023-06-14T06:06:50;21.70;69.20
55313;DHT22;46892;45.668;11.756;2023-06-14T06:09:15;21.60;70.20
55313;DHT22;46892;45.668;11.756;2023-06-14T06:11:41;21.60;70.20
55313;DHT22;46892;45.668;11.756;2023-06-14T06:14:07;21.60;70.40
55313;DHT22;46892;45.668;11.756;2023-06-14T06:16:32;21.70;69.00
55313;DHT22;46892;45.668;11.756;2023-06-14T06:18:59;21.70;70.00
55313;DHT22;46892;45.668;11.756;2023-06-14T06:21:24;21.80;69.90
55313;DHT22;46892;45.668;11.756;2023-06-14T06:23:50;21.90;67.30
55313;DHT22;46892;45.668;11.756;2023-06-14T06:26:16;22.00;68.00
55313;DHT22;46892;45.668;11.756;2023-06-14T06:28:42;22.00;67.40
55313;DHT22;46892;45.668;11.756;2023-06-14T06:31:08;22.00;68.50
55313;DHT22;46892;45.668;11.756;2023-06-14T06:33:33;22.00;67.00
55313;DHT22;46892;45.668;11.756;2023-06-14T06:35:59;22.20;68.90
55313;DHT22;46892;45.668;11.756;2023-06-14T06:38:25;22.30;70.30
55313;DHT22;46892;45.668;11.756;2023-06-14T06:40:51;22.50;66.00
55313;DHT22;46892;45.668;11.756;2023-06-14T06:43:16;22.50;66.10
55313;DHT22;46892;45.668;11.756;2023-06-14T06:45:43;22.50;66.80
55313;DHT22;46892;45.668;11.756;2023-06-14T06:48:09;22.60;67.30
55313;DHT22;46892;45.668;11.756;2023-06-14T06:50:37;22.70;63.50
55313;DHT22;46892;45.668;11.756;2023-06-14T06:53:04;22.80;66.60
55313;DHT22;46892;45.668;11.756;2023-06-14T06:55:30;23.00;68.70
55313;DHT22;46892;45.668;11.756;2023-06-14T06:57:56;23.20;63.90
55313;DHT22;46892;45.668;11.756;2023-06-14T07:00:22;23.20;61.10
55313;DHT22;46892;45.668;11.756;2023-06-14T07:02:48;23.30;60.60
55313;DHT22;46892;45.668;11.756;2023-06-14T07:05:14;23.50;60.50
55313;DHT22;46892;45.668;11.756;2023-06-14T07:07:40;23.70;62.90
55313;DHT22;46892;45.668;11.756;2023-06-14T07:10:06;23.70;61.40
55313;DHT22;46892;45.668;11.756;2023-06-14T07:12:33;23.90;60.20
55313;DHT22;46892;45.668;11.756;2023-06-14T07:15:01;24.10;63.40
55313;DHT22;46892;45.668;11.756;2023-06-14T07:17:27;24.40;59.00
55313;DHT22;46892;45.668;11.756;2023-06-14T07:19:53;24.40;56.40
55313;DHT22;46892;45.668;11.756;2023-06-14T07:22:19;24.20;57.60
55313;DHT22;46892;45.668;11.756;2023-06-14T07:24:45;24.00;58.00
55313;DHT22;46892;45.668;11.756;2023-06-14T07:27:11;23.80;60.50
55313;DHT22;46892;45.668;11.756;2023-06-14T07:29:38;23.70;62.70
55313;DHT22;46892;45.668;11.756;2023-06-14T07:32:05;23.70;61.60
55313;DHT22;46892;45.668;11.756;2023-06-14T07:34:31;23.40;61.50
55313;DHT22;46892;45.668;11.756;2023-06-14T07:36:57;23.20;63.20
55313;DHT22;46892;45.668;11.756;2023-06-14T07:39:22;23.20;65.00
55313;DHT22;46892;45.668;11.756;2023-06-14T07:41:49;23.20;63.40
55313;DHT22;46892;45.668;11.756;2023-06-14T07:44:15;23.10;63.80
55313;DHT22;46892;45.668;11.756;2023-06-14T07:46:41;23.00;63.40
55313;DHT22;46892;45.668;11.756;2023-06-14T07:49:07;23.00;65.00
55313;DHT22;46892;45.668;11.756;2023-06-14T07:51:33;23.00;63.60
55313;DHT22;46892;45.668;11.756;2023-06-14T07:53:59;22.90;64.60
55313;DHT22;46892;45.668;11.756;2023-06-14T07:56:28;22.90;64.20
55313;DHT22;46892;45.668;11.756;2023-06-14T07:58:54;22.90;62.60
55313;DHT22;46892;45.668;11.756;2023-06-14T08:01:20;22.90;61.80
55313;DHT22;46892;45.668;11.756;2023-06-14T08:03:46;22.90;62.10
55313;DHT22;46892;45.668;11.756;2023-06-14T08:06:11;23.00;62.20
55313;DHT22;46892;45.668;11.756;2023-06-14T08:08:37;23.00;62.80
55313;DHT22;46892;45.668;11.756;2023-06-14T08:11:03;23.20;61.00
55313;DHT22;46892;45.668;11.756;2023-06-14T08:13:28;23.30;64.00
55313;DHT22;46892;45.668;11.756;2023-06-14T08:15:54;23.50;63.70
55313;DHT22;46892;45.668;11.756;2023-06-14T08:18:22;23.70;61.40
55313;DHT22;46892;45.668;11.756;2023-06-14T08:20:48;24.00;61.20
55313;DHT22;46892;45.668;11.756;2023-06-14T08:23:15;24.20;62.70
55313;DHT22;46892;45.668;11.756;2023-06-14T08:25:44;24.20;60.20
55313;DHT22;46892;45.668;11.756;2023-06-14T08:28:10;24.20;62.00
55313;DHT22;46892;45.668;11.756;2023-06-14T08:30:36;24.10;62.30
55313;DHT22;46892;45.668;11.756;2023-06-14T08:33:02;24.20;60.00
55313;DHT22;46892;45.668;11.756;2023-06-14T08:35:27;24.20;60.90
55313;DHT22;46892;45.668;11.756;2023-06-14T08:37:53;24.10;61.90
55313;DHT22;46892;45.668;11.756;2023-06-14T08:40:21;24.00;58.90
55313;DHT22;46892;45.668;11.756;2023-06-14T08:42:50;24.00;60.80
55313;DHT22;46892;45.668;11.756;2023-06-14T08:45:16;24.00;61.70
55313;DHT22;46892;45.668;11.756;2023-06-14T08:47:42;24.10;60.80
55313;DHT22;46892;45.668;11.756;2023-06-14T08:50:09;24.00;62.30
55313;DHT22;46892;45.668;11.756;2023-06-14T08:52:38;24.00;63.20
55313;DHT22;46892;45.668;11.756;2023-06-14T08:55:11;23.80;62.20
55313;DHT22;46892;45.668;11.756;2023-06-14T08:57:37;23.70;61.70
55313;DHT22;46892;45.668;11.756;2023-06-14T09:00:05;23.60;61.10
55313;DHT22;46892;45.668;11.756;2023-06-14T09:02:38;23.50;61.60
55313;DHT22;46892;45.668;11.756;2023-06-14T09:05:12;23.50;62.70
55313;DHT22;46892;45.668;11.756;2023-06-14T09:07:43;23.50;61.30
55313;DHT22;46892;45.668;11.756;2023-06-14T09:10:13;23.30;62.10
55313;DHT22;46892;45.668;11.756;2023-06-14T09:12:40;23.40;64.10
55313;DHT22;46892;45.668;11.756;2023-06-14T09:15:06;23.30;65.30
55313;DHT22;46892;45.668;11.756;2023-06-14T09:17:35;23.30;65.00
55313;DHT22;46892;45.668;11.756;2023-06-14T09:20:03;23.30;63.50
55313;DHT22;46892;45.668;11.756;2023-06-14T09:22:33;23.30;64.10
55313;DHT22;46892;45.668;11.756;2023-06-14T09:24:59;23.20;62.70
55313;DHT22;46892;45.668;11.756;2023-06-14T09:27:28;23.20;66.30
55313;DHT22;46892;45.668;11.756;2023-06-14T09:29:55;23.30;64.50
55313;DHT22;46892;45.668;11.756;2023-06-14T09:32:23;23.20;62.60
55313;DHT22;46892;45.668;11.756;2023-06-14T09:34:49;23.20;62.70
55313;DHT22;46892;45.668;11.756;2023-06-14T09:37:35;23.20;62.90
55313;DHT22;46892;45.668;11.756;2023-06-14T09:40:03;23.20;63.80
55313;DHT22;46892;45.668;11.756;2023-06-14T09:42:29;23.20;64.90
55313;DHT22;46892;45.668;11.756;2023-06-14T09:44:56;23.20;65.10
55313;DHT22;46892;45.668;11.756;2023-06-14T09:47:23;23.20;63.30
55313;DHT22;46892;45.668;11.756;2023-06-14T09:49:51;23.20;63.90
55313;DHT22;46892;45.668;11.756;2023-06-14T09:52:21;23.30;61.10
55313;DHT22;46892;45.668;11.756;2023-06-14T09:54:48;23.30;62.20
55313;DHT22;46892;45.668;11.756;2023-06-14T09:57:21;23.30;63.50
55313;DHT22;46892;45.668;11.756;2023-06-14T09:59:48;23.30;64.70
55313;DHT22;46892;45.668;11.756;2023-06-14T10:02:31;23.40;61.90
55313;DHT22;46892;45.668;11.756;2023-06-14T10:05:03;23.50;61.40
55313;DHT22;46892;45.668;11.756;2023-06-14T10:07:35;23.50;62.20
55313;DHT22;46892;45.668;11.756;2023-06-14T10:10:04;23.50;60.70
55313;DHT22;46892;45.668;11.756;2023-06-14T10:12:31;23.50;62.10
55313;DHT22;46892;45.668;11.756;2023-06-14T10:14:57;23.40;61.80
55313;DHT22;46892;45.668;11.756;2023-06-14T10:20:45;23.50;61.40
55313;DHT22;46892;45.668;11.756;2023-06-14T10:23:19;23.50;62.20
55313;DHT22;46892;45.668;11.756;2023-06-14T10:25:50;23.50;60.80
55313;DHT22;46892;45.668;11.756;2023-06-14T10:28:20;23.60;64.40
55313;DHT22;46892;45.668;11.756;2023-06-14T10:31:09;23.60;62.40
55313;DHT22;46892;45.668;11.756;2023-06-14T10:33:56;23.60;61.90
55313;DHT22;46892;45.668;11.756;2023-06-14T10:38:58;23.80;60.30
55313;DHT22;46892;45.668;11.756;2023-06-14T10:41:27;23.80;60.70
55313;DHT22;46892;45.668;11.756;2023-06-14T10:46:40;23.90;59.20
55313;DHT22;46892;45.668;11.756;2023-06-14T10:49:12;23.90;62.50
55313;DHT22;46892;45.668;11.756;2023-06-14T10:51:45;23.90;61.20
55313;DHT22;46892;45.668;11.756;2023-06-14T10:54:14;23.90;62.40
55313;DHT22;46892;45.668;11.756;2023-06-14T10:56:51;23.90;61.60
55313;DHT22;46892;45.668;11.756;2023-06-14T10:59:18;24.10;60.40
55313;DHT22;46892;45.668;11.756;2023-06-14T11:04:50;24.30;61.20
55313;DHT22;46892;45.668;11.756;2023-06-14T11:12:52;24.70;58.70
55313;DHT22;46892;45.668;11.756;2023-06-14T11:15:20;24.70;57.90
55313;DHT22;46892;45.668;11.756;2023-06-14T11:17:52;24.70;56.80
55313;DHT22;46892;45.668;11.756;2023-06-14T11:20:25;24.70;58.90
55313;DHT22;46892;45.668;11.756;2023-06-14T11:22:52;24.70;57.20
55313;DHT22;46892;45.668;11.756;2023-06-14T11:25:18;24.70;55.90
55313;DHT22;46892;45.668;11.756;2023-06-14T11:27:44;24.60;55.60
55313;DHT22;46892;45.668;11.756;2023-06-14T11:30:11;24.50;58.40
55313;DHT22;46892;45.668;11.756;2023-06-14T11:32:37;24.50;56.70
55313;DHT22;46892;45.668;11.756;2023-06-14T11:35:03;24.60;59.20
55313;DHT22;46892;45.668;11.756;2023-06-14T11:37:31;24.80;58.90
55313;DHT22;46892;45.668;11.756;2023-06-14T11:39:59;24.80;59.50
55313;DHT22;46892;45.668;11.756;2023-06-14T11:42:28;24.80;54.60
55313;DHT22;46892;45.668;11.756;2023-06-14T11:44:54;24.80;56.20
55313;DHT22;46892;45.668;11.756;2023-06-14T11:47:20;24.90;55.50
55313;DHT22;46892;45.668;11.756;2023-06-14T11:49:47;24.80;58.70
55313;DHT22;46892;45.668;11.756;2023-06-14T11:52:13;24.90;56.30
55313;DHT22;46892;45.668;11.756;2023-06-14T11:54:39;25.00;55.10
55313;DHT22;46892;45.668;11.756;2023-06-14T11:57:09;25.00;58.60
55313;DHT22;46892;45.668;11.756;2023-06-14T11:59:39;25.10;56.00
55313;DHT22;46892;45.668;11.756;2023-06-14T12:02:06;25.20;57.20
55313;DHT22;46892;45.668;11.756;2023-06-14T12:04:32;25.20;56.10
55313;DHT22;46892;45.668;11.756;2023-06-14T12:07:09;25.30;56.10
55313;DHT22;46892;45.668;11.756;2023-06-14T12:09:36;25.30;55.40
55313;DHT22;46892;45.668;11.756;2023-06-14T12:12:02;25.30;58.00
55313;DHT22;46892;45.668;11.756;2023-06-14T12:14:32;25.40;55.40
55313;DHT22;46892;45.668;11.756;2023-06-14T12:17:05;25.40;53.70
55313;DHT22;46892;45.668;11.756;2023-06-14T12:19:32;25.40;52.40
55313;DHT22;46892;45.668;11.756;2023-06-14T12:21:59;25.30;52.30
55313;DHT22;46892;45.668;11.756;2023-06-14T12:24:29;25.30;52.90
55313;DHT22;46892;45.668;11.756;2023-06-14T12:26:58;25.30;54.90
55313;DHT22;46892;45.668;11.756;2023-06-14T12:29:30;25.30;51.10
55313;DHT22;46892;45.668;11.756;2023-06-14T12:31:56;25.30;51.50
55313;DHT22;46892;45.668;11.756;2023-06-14T12:34:26;25.30;52.40
55313;DHT22;46892;45.668;11.756;2023-06-14T12:36:52;25.30;52.40
55313;DHT22;46892;45.668;11.756;2023-06-14T12:39:19;25.30;51.10
55313;DHT22;46892;45.668;11.756;2023-06-14T12:41:45;25.30;54.70
55313;DHT22;46892;45.668;11.756;2023-06-14T12:44:13;25.50;52.70
55313;DHT22;46892;45.668;11.756;2023-06-14T12:46:40;25.60;52.60
55313;DHT22;46892;45.668;11.756;2023-06-14T12:49:10;25.60;52.70
55313;DHT22;46892;45.668;11.756;2023-06-14T12:51:39;25.60;55.10
55313;DHT22;46892;45.668;11.756;2023-06-14T12:54:06;25.70;55.20
55313;DHT22;46892;45.668;11.756;2023-06-14T12:56:31;25.70;53.00
55313;DHT22;46892;45.668;11.756;2023-06-14T12:58:58;25.70;52.60
55313;DHT22;46892;45.668;11.756;2023-06-14T13:01:24;25.70;53.90
55313;DHT22;46892;45.668;11.756;2023-06-14T13:03:50;25.70;51.30
55313;DHT22;46892;45.668;11.756;2023-06-14T13:06:17;25.80;55.00
55313;DHT22;46892;45.668;11.756;2023-06-14T13:08:43;25.80;53.60
55313;DHT22;46892;45.668;11.756;2023-06-14T13:11:09;25.80;52.30
55313;DHT22;46892;45.668;11.756;2023-06-14T13:13:34;25.80;52.70
55313;DHT22;46892;45.668;11.756;2023-06-14T13:16:00;25.70;55.00
55313;DHT22;46892;45.668;11.756;2023-06-14T13:18:26;25.70;53.30
55313;DHT22;46892;45.668;11.756;2023-06-14T13:20:52;25.70;52.60
55313;DHT22;46892;45.668;11.756;2023-06-14T13:23:18;25.80;55.00
55313;DHT22;46892;45.668;11.756;2023-06-14T13:25:44;25.70;49.60
55313;DHT22;46892;45.668;11.756;2023-06-14T13:28:10;25.70;53.20
55313;DHT22;46892;45.668;11.756;2023-06-14T13:30:37;25.70;51.80
55313;DHT22;46892;45.668;11.756;2023-06-14T13:33:02;25.70;51.40
55313;DHT22;46892;45.668;11.756;2023-06-14T13:35:28;25.70;53.40
55313;DHT22;46892;45.668;11.756;2023-06-14T13:37:54;25.70;51.40
55313;DHT22;46892;45.668;11.756;2023-06-14T13:40:20;25.70;53.00
55313;DHT22;46892;45.668;11.756;2023-06-14T13:42:46;25.70;53.30
55313;DHT22;46892;45.668;11.756;2023-06-14T13:45:12;25.80;54.70
55313;DHT22;46892;45.668;11.756;2023-06-14T13:47:38;25.90;54.80
55313;DHT22;46892;45.668;11.756;2023-06-14T13:50:05;25.90;52.20
55313;DHT22;46892;45.668;11.756;2023-06-14T13:52:31;26.00;52.90
55313;DHT22;46892;45.668;11.756;2023-06-14T13:54:57;26.00;51.80
55313;DHT22;46892;45.668;11.756;2023-06-14T13:57:22;26.00;53.10
55313;DHT22;46892;45.668;11.756;2023-06-14T13:59:48;26.00;50.10
55313;DHT22;46892;45.668;11.756;2023-06-14T14:02:15;25.90;51.10
55313;DHT22;46892;45.668;11.756;2023-06-14T14:04:41;26.00;50.70
55313;DHT22;46892;45.668;11.756;2023-06-14T14:07:07;26.10;49.20
55313;DHT22;46892;45.668;11.756;2023-06-14T14:09:33;26.20;50.50
55313;DHT22;46892;45.668;11.756;2023-06-14T14:12:00;26.10;49.50
55313;DHT22;46892;45.668;11.756;2023-06-14T14:14:28;26.00;48.00
55313;DHT22;46892;45.668;11.756;2023-06-14T14:16:54;26.00;47.40
55313;DHT22;46892;45.668;11.756;2023-06-14T14:19:21;26.00;47.60
55313;DHT22;46892;45.668;11.756;2023-06-14T14:21:47;25.90;51.60
55313;DHT22;46892;45.668;11.756;2023-06-14T14:24:13;25.90;51.20
55313;DHT22;46892;45.668;11.756;2023-06-14T14:26:39;25.90;50.50
55313;DHT22;46892;45.668;11.756;2023-06-14T14:29:05;26.00;50.50
55313;DHT22;46892;45.668;11.756;2023-06-14T14:31:31;26.00;52.50
55313;DHT22;46892;45.668;11.756;2023-06-14T14:33:57;26.10;53.30
55313;DHT22;46892;45.668;11.756;2023-06-14T14:36:23;26.20;52.50
55313;DHT22;46892;45.668;11.756;2023-06-14T14:38:48;26.10;49.10
55313;DHT22;46892;45.668;11.756;2023-06-14T14:41:14;26.00;50.00
55313;DHT22;46892;45.668;11.756;2023-06-14T14:43:40;25.90;48.30
55313;DHT22;46892;45.668;11.756;2023-06-14T14:46:06;26.00;51.10
55313;DHT22;46892;45.668;11.756;2023-06-14T14:48:32;26.10;51.10
55313;DHT22;46892;45.668;11.756;2023-06-14T14:50:57;26.20;52.70
55313;DHT22;46892;45.668;11.756;2023-06-14T14:53:23;26.10;51.60
55313;DHT22;46892;45.668;11.756;2023-06-14T14:55:49;26.10;47.80
55313;DHT22;46892;45.668;11.756;2023-06-14T14:58:15;26.00;51.80
55313;DHT22;46892;45.668;11.756;2023-06-14T15:00:44;26.10;53.40
55313;DHT22;46892;45.668;11.756;2023-06-14T15:03:10;26.10;52.40
55313;DHT22;46892;45.668;11.756;2023-06-14T15:05:36;26.10;53.50
55313;DHT22;46892;45.668;11.756;2023-06-14T15:08:03;26.10;50.10
55313;DHT22;46892;45.668;11.756;2023-06-14T15:10:29;26.20;50.30
55313;DHT22;46892;45.668;11.756;2023-06-14T15:12:55;26.20;50.90
55313;DHT22;46892;45.668;11.756;2023-06-14T15:15:22;26.10;51.80
55313;DHT22;46892;45.668;11.756;2023-06-14T15:17:48;26.00;49.20
55313;DHT22;46892;45.668;11.756;2023-06-14T15:20:13;25.90;50.20
55313;DHT22;46892;45.668;11.756;2023-06-14T15:22:41;25.90;50.70
55313;DHT22;46892;45.668;11.756;2023-06-14T15:25:07;25.90;52.40
55313;DHT22;46892;45.668;11.756;2023-06-14T15:27:33;25.90;51.20
55313;DHT22;46892;45.668;11.756;2023-06-14T15:29:59;26.00;49.90
55313;DHT22;46892;45.668;11.756;2023-06-14T15:32:25;26.00;53.70
55313;DHT22;46892;45.668;11.756;2023-06-14T15:34:50;26.00;49.70
55313;DHT22;46892;45.668;11.756;2023-06-14T15:37:16;26.20;52.40
55313;DHT22;46892;45.668;11.756;2023-06-14T15:39:42;26.20;52.60